createdAt,value
2022-12-31T00:01:08.443Z,0.30
2022-12-31T00:03:37.475Z,0.40
2022-12-31T00:06:16.347Z,0.40
2022-12-31T00:08:44.915Z,0.25
2022-12-31T00:11:14.252Z,0.30
2022-12-31T00:13:43.111Z,0.30
2022-12-31T00:16:13.494Z,0.38
2022-12-31T00:18:45.383Z,1.00
2022-12-31T00:21:16.296Z,0.22
2022-12-31T00:23:44.971Z,0.30
2022-12-31T00:26:15.120Z,0.40
2022-12-31T00:28:43.762Z,0.30
2022-12-31T00:31:14.311Z,0.50
2022-12-31T00:33:43.213Z,0.28
2022-12-31T00:36:15.333Z,0.30
2022-12-31T00:38:45.903Z,0.30
2022-12-31T00:41:15.580Z,0.30
2022-12-31T00:43:44.524Z,0.30
2022-12-31T00:46:13.989Z,0.40
2022-12-31T00:48:42.902Z,0.35
2022-12-31T00:51:15.280Z,0.32
2022-12-31T00:53:44.168Z,0.20
2022-12-31T00:56:15.454Z,0.70
2022-12-31T00:58:44.218Z,0.30
2022-12-31T01:01:15.729Z,0.33
2022-12-31T01:03:44.384Z,0.47
2022-12-31T01:06:14.583Z,0.30
2022-12-31T01:08:43.136Z,0.27
2022-12-31T01:11:23.212Z,0.30
2022-12-31T01:13:53.686Z,1.75
2022-12-31T01:16:24.470Z,0.20
2022-12-31T01:18:53.398Z,0.30
2022-12-31T01:21:23.748Z,0.30
2022-12-31T01:23:52.261Z,0.38
2022-12-31T01:26:21.878Z,0.20
2022-12-31T01:28:50.666Z,0.30
2022-12-31T01:31:21.375Z,0.40
2022-12-31T01:33:50.300Z,0.40
2022-12-31T01:36:25.870Z,0.30
2022-12-31T01:38:55.817Z,0.20
2022-12-31T01:41:27.005Z,0.45
2022-12-31T01:43:58.577Z,0.65
2022-12-31T01:46:34.228Z,1.00
2022-12-31T01:49:10.127Z,0.30
2022-12-31T01:51:42.971Z,0.30
2022-12-31T01:54:14.018Z,0.40
2022-12-31T01:56:44.970Z,0.30
2022-12-31T01:59:16.696Z,0.30
2022-12-31T02:01:48.362Z,0.30
2022-12-31T02:04:17.549Z,0.10
2022-12-31T02:06:51.349Z,0.30
2022-12-31T02:09:20.140Z,0.20
2022-12-31T02:11:48.806Z,0.30
2022-12-31T02:14:20.034Z,0.20
2022-12-31T02:16:55.801Z,0.20
2022-12-31T02:19:57.234Z,0.20
2022-12-31T02:22:43.968Z,0.30
2022-12-31T02:25:33.695Z,0.17
2022-12-31T02:28:19.134Z,0.50
2022-12-31T02:30:53.469Z,0.10
2022-12-31T02:33:29.055Z,0.10
2022-12-31T02:36:01.923Z,1.30
2022-12-31T02:38:36.849Z,0.40
2022-12-31T02:41:05.223Z,0.40
2022-12-31T02:43:33.704Z,2.00
2022-12-31T02:46:17.296Z,0.20
2022-12-31T02:48:56.107Z,0.20
2022-12-31T02:51:38.142Z,0.50
2022-12-31T02:54:33.837Z,0.15
2022-12-31T02:57:11.436Z,0.20
2022-12-31T03:00:06.302Z,0.22
2022-12-31T03:02:40.061Z,0.30
2022-12-31T03:05:10.279Z,0.80
2022-12-31T03:07:40.552Z,0.30
2022-12-31T03:10:11.004Z,0.70
2022-12-31T03:12:49.020Z,0.20
2022-12-31T03:15:21.350Z,0.60
2022-12-31T03:17:58.117Z,1.40
2022-12-31T03:20:48.721Z,0.20
2022-12-31T03:23:23.777Z,0.20
2022-12-31T03:25:51.146Z,0.30
2022-12-31T03:28:21.388Z,0.20
2022-12-31T03:30:53.905Z,0.20
2022-12-31T03:33:25.030Z,0.20
2022-12-31T03:35:54.723Z,0.22
2022-12-31T03:38:22.979Z,0.20
2022-12-31T03:40:53.964Z,0.30
2022-12-31T03:43:22.335Z,0.30
2022-12-31T03:45:52.549Z,0.28
2022-12-31T03:48:22.245Z,0.30
2022-12-31T03:50:52.279Z,0.20
2022-12-31T03:53:20.585Z,0.45
2022-12-31T03:55:53.296Z,0.60
2022-12-31T03:58:22.155Z,0.27
2022-12-31T04:00:50.676Z,0.20
2022-12-31T04:03:19.372Z,0.70
2022-12-31T04:05:55.145Z,0.32
2022-12-31T04:08:23.665Z,0.30
2022-12-31T04:10:51.915Z,0.30
2022-12-31T04:13:20.211Z,0.35
2022-12-31T04:15:51.885Z,0.30
2022-12-31T04:18:20.107Z,0.35
2022-12-31T04:20:48.323Z,0.30
2022-12-31T04:23:19.280Z,0.20
2022-12-31T04:25:47.462Z,0.40
2022-12-31T04:28:15.696Z,0.57
2022-12-31T04:30:44.215Z,0.20
2022-12-31T04:33:12.541Z,0.33
2022-12-31T04:35:40.727Z,0.63
2022-12-31T04:38:08.973Z,0.40
2022-12-31T04:40:58.697Z,0.20
2022-12-31T04:43:26.986Z,0.30
2022-12-31T04:45:55.187Z,0.47
2022-12-31T04:48:23.441Z,0.32
2022-12-31T04:50:51.664Z,0.30
2022-12-31T04:53:19.869Z,0.40
2022-12-31T04:55:49.436Z,0.35
2022-12-31T04:58:17.927Z,0.40
2022-12-31T05:00:49.774Z,1.10
2022-12-31T05:03:19.014Z,0.68
2022-12-31T05:05:47.408Z,0.30
2022-12-31T05:08:15.847Z,0.40
2022-12-31T05:10:47.440Z,0.28
2022-12-31T05:13:17.646Z,0.38
2022-12-31T05:15:47.996Z,0.65
2022-12-31T05:18:16.499Z,1.02
2022-12-31T05:20:44.945Z,0.57
2022-12-31T05:23:13.517Z,1.00
2022-12-31T05:25:43.180Z,0.40
2022-12-31T05:28:11.846Z,0.80
2022-12-31T05:30:41.815Z,0.40
2022-12-31T05:33:10.359Z,0.70
2022-12-31T05:35:38.834Z,1.27
2022-12-31T05:38:07.038Z,0.20
2022-12-31T05:40:35.275Z,0.43
2022-12-31T05:43:03.500Z,0.53
2022-12-31T05:45:31.733Z,0.50
2022-12-31T05:48:01.342Z,0.80
2022-12-31T05:50:29.604Z,1.40
2022-12-31T05:52:58.274Z,1.07
2022-12-31T05:55:26.487Z,0.35
2022-12-31T06:00:26.328Z,0.70
2022-12-31T06:02:54.546Z,0.38
2022-12-31T06:05:26.363Z,0.75
2022-12-31T06:07:55.029Z,1.27
2022-12-31T06:10:23.368Z,0.90
2022-12-31T06:12:51.542Z,0.55
2022-12-31T06:15:19.964Z,0.43
2022-12-31T06:17:48.156Z,1.10
2022-12-31T06:20:16.566Z,0.93
2022-12-31T06:22:46.212Z,0.40
2022-12-31T06:25:14.691Z,0.60
2022-12-31T06:27:42.917Z,0.75
2022-12-31T06:30:13.484Z,0.50
2022-12-31T06:32:42.220Z,0.83
2022-12-31T06:35:11.180Z,0.30
2022-12-31T06:37:39.503Z,0.50
2022-12-31T06:40:11.370Z,0.85
2022-12-31T06:42:39.921Z,0.30
2022-12-31T06:45:09.653Z,2.03
2022-12-31T06:47:37.930Z,0.60
2022-12-31T06:50:08.047Z,0.40
2022-12-31T06:52:36.295Z,0.52
2022-12-31T06:55:06.283Z,0.70
2022-12-31T06:57:36.871Z,1.53
2022-12-31T07:00:07.057Z,0.40
2022-12-31T07:03:11.263Z,1.83
2022-12-31T07:05:47.666Z,1.27
2022-12-31T07:08:38.044Z,1.15
2022-12-31T07:11:14.369Z,1.00
2022-12-31T07:14:04.226Z,0.65
2022-12-31T07:16:55.151Z,0.65
2022-12-31T07:19:42.072Z,0.68
2022-12-31T07:22:16.161Z,1.37
2022-12-31T07:24:46.066Z,1.88
2022-12-31T07:27:43.352Z,0.40
2022-12-31T07:30:16.953Z,0.85
2022-12-31T07:33:33.880Z,3.20
2022-12-31T07:36:15.602Z,0.80
2022-12-31T07:38:54.933Z,0.80
2022-12-31T07:41:40.151Z,0.97
2022-12-31T07:44:17.128Z,0.35
2022-12-31T07:46:56.706Z,0.60
2022-12-31T07:49:27.334Z,0.60
2022-12-31T07:51:56.655Z,0.50
2022-12-31T07:54:24.964Z,1.13
2022-12-31T07:56:53.703Z,0.90
2022-12-31T07:59:41.618Z,1.30
2022-12-31T08:02:26.949Z,2.03
2022-12-31T08:05:06.684Z,0.90
2022-12-31T08:07:46.603Z,0.40
2022-12-31T08:10:24.210Z,1.20
2022-12-31T08:13:04.158Z,0.55
2022-12-31T08:15:33.237Z,1.57
2022-12-31T08:18:03.617Z,0.97
2022-12-31T08:20:34.000Z,0.85
2022-12-31T08:23:21.099Z,0.27
2022-12-31T08:26:07.749Z,0.90
2022-12-31T08:29:01.242Z,2.55
2022-12-31T08:31:41.419Z,0.75
2022-12-31T08:34:20.351Z,1.15
2022-12-31T08:36:59.391Z,2.33
2022-12-31T08:39:56.640Z,1.00
2022-12-31T08:42:35.574Z,1.38
2022-12-31T08:45:15.216Z,0.70
2022-12-31T08:47:59.844Z,1.02
2022-12-31T08:50:31.305Z,1.10
2022-12-31T08:53:00.824Z,0.88
2022-12-31T08:55:30.105Z,1.90
2022-12-31T08:58:16.391Z,0.57
2022-12-31T09:00:44.836Z,0.45
2022-12-31T09:03:46.209Z,0.90
2022-12-31T09:06:20.923Z,0.43
2022-12-31T09:08:59.684Z,0.88
2022-12-31T09:11:39.895Z,0.87
2022-12-31T09:14:26.889Z,1.50
2022-12-31T09:17:05.640Z,0.40
2022-12-31T09:19:33.896Z,1.47
2022-12-31T09:22:04.616Z,2.72
2022-12-31T09:24:33.540Z,0.60
2022-12-31T09:27:14.159Z,0.40
2022-12-31T09:29:55.513Z,0.95
2022-12-31T09:32:31.437Z,0.50
2022-12-31T09:35:09.818Z,1.00
2022-12-31T09:37:47.378Z,1.20
2022-12-31T09:41:15.503Z,1.90
2022-12-31T09:44:47.257Z,1.10
2022-12-31T09:48:11.180Z,1.13
2022-12-31T09:50:58.603Z,1.60
2022-12-31T09:53:42.074Z,1.10
2022-12-31T09:56:24.087Z,0.95
2022-12-31T09:59:03.824Z,1.00
2022-12-31T10:01:47.108Z,0.55
2022-12-31T10:04:57.379Z,2.28
2022-12-31T10:07:53.942Z,2.05
2022-12-31T10:10:31.363Z,0.82
2022-12-31T10:13:45.156Z,3.35
2022-12-31T10:16:53.544Z,0.90
2022-12-31T10:20:17.144Z,1.10
2022-12-31T10:23:15.356Z,0.50
2022-12-31T10:26:22.272Z,1.00
2022-12-31T10:28:56.950Z,1.67
2022-12-31T10:31:41.198Z,2.30
2022-12-31T10:34:17.981Z,1.27
2022-12-31T10:37:04.371Z,0.55
2022-12-31T10:39:56.092Z,1.43
2022-12-31T10:42:59.051Z,1.10
2022-12-31T10:45:57.532Z,1.83
2022-12-31T10:49:20.551Z,1.58
2022-12-31T10:52:27.359Z,0.75
2022-12-31T10:55:38.034Z,2.70
2022-12-31T10:59:11.396Z,0.88
2022-12-31T11:01:55.457Z,1.80
2022-12-31T11:05:17.707Z,2.45
2022-12-31T11:08:24.013Z,1.90
2022-12-31T11:11:29.513Z,0.82
2022-12-31T11:14:58.056Z,1.63
2022-12-31T11:17:41.973Z,1.27
2022-12-31T11:21:00.272Z,1.02
2022-12-31T11:23:42.154Z,2.65
2022-12-31T11:26:23.259Z,3.33
2022-12-31T11:29:29.980Z,1.48
2022-12-31T11:32:12.988Z,0.88
2022-12-31T11:35:13.271Z,1.92
2022-12-31T11:37:47.924Z,1.77
2022-12-31T11:40:48.506Z,1.95
2022-12-31T11:43:35.663Z,1.97
2022-12-31T11:46:41.336Z,1.47
2022-12-31T11:49:48.665Z,2.65
2022-12-31T11:52:52.582Z,1.50
2022-12-31T11:55:41.473Z,1.90
2022-12-31T11:58:17.146Z,2.42
2022-12-31T12:00:55.437Z,0.50
2022-12-31T12:03:24.694Z,1.20
2022-12-31T12:05:54.543Z,1.10
2022-12-31T12:08:22.771Z,0.85
2022-12-31T12:10:54.947Z,1.55
2022-12-31T12:13:26.646Z,1.98
2022-12-31T12:15:59.096Z,1.70
2022-12-31T12:18:34.510Z,1.07
2022-12-31T12:21:09.915Z,2.20
2022-12-31T12:23:39.626Z,3.53
2022-12-31T12:26:08.649Z,1.10
2022-12-31T12:28:46.775Z,0.98
2022-12-31T12:31:22.550Z,1.05
2022-12-31T12:33:52.517Z,1.73
2022-12-31T12:36:22.999Z,1.88
2022-12-31T12:39:03.351Z,1.17
2022-12-31T12:41:32.064Z,1.80
2022-12-31T12:44:06.220Z,1.10
2022-12-31T12:46:36.777Z,2.35
2022-12-31T12:49:05.359Z,2.60
2022-12-31T12:52:07.516Z,0.88
2022-12-31T12:54:55.850Z,1.70
2022-12-31T12:57:35.035Z,1.95
2022-12-31T13:00:15.434Z,1.23
2022-12-31T13:03:29.764Z,1.10
2022-12-31T13:06:21.767Z,1.17
2022-12-31T13:09:15.986Z,1.05
2022-12-31T13:12:07.521Z,1.38
2022-12-31T13:14:48.643Z,0.82
2022-12-31T13:17:56.126Z,0.60
2022-12-31T13:20:34.360Z,1.80
2022-12-31T13:23:12.129Z,1.25
2022-12-31T13:26:00.437Z,2.10
2022-12-31T13:28:29.572Z,2.35
2022-12-31T13:31:06.554Z,1.48
2022-12-31T13:33:40.219Z,1.30
2022-12-31T13:36:11.528Z,1.20
2022-12-31T13:38:43.147Z,3.10
2022-12-31T13:41:18.488Z,1.15
2022-12-31T13:43:55.246Z,2.20
2022-12-31T13:46:33.758Z,2.35
2022-12-31T13:49:06.183Z,3.47
2022-12-31T13:51:42.955Z,4.03
2022-12-31T13:54:25.579Z,1.40
2022-12-31T13:56:58.312Z,2.63
2022-12-31T13:59:34.895Z,1.55
2022-12-31T14:02:18.144Z,1.30
2022-12-31T14:04:52.200Z,1.10
2022-12-31T14:07:35.458Z,1.67
2022-12-31T14:10:15.010Z,1.90
2022-12-31T14:12:55.100Z,0.55
2022-12-31T14:15:30.573Z,2.17
2022-12-31T14:18:07.587Z,1.40
2022-12-31T14:20:47.871Z,3.42
2022-12-31T14:23:25.229Z,2.10
2022-12-31T14:25:57.214Z,1.67
2022-12-31T14:28:33.929Z,1.40
2022-12-31T14:31:13.776Z,3.00
2022-12-31T14:33:52.945Z,2.80
2022-12-31T14:36:36.967Z,2.47
2022-12-31T14:39:31.254Z,2.33
2022-12-31T14:42:19.057Z,1.15
2022-12-31T14:45:07.603Z,3.05
2022-12-31T14:47:51.310Z,2.53
2022-12-31T14:50:26.051Z,3.13
2022-12-31T14:52:57.522Z,2.47
2022-12-31T14:55:29.690Z,1.58
2022-12-31T14:58:27.260Z,4.57
2022-12-31T15:00:57.271Z,2.10
2022-12-31T15:03:36.997Z,2.80
2022-12-31T15:06:41.417Z,1.63
2022-12-31T15:09:32.280Z,2.15
2022-12-31T15:12:33.424Z,2.25
2022-12-31T15:15:23.173Z,2.50
2022-12-31T15:18:07.273Z,2.13
2022-12-31T15:21:12.691Z,3.40
2022-12-31T15:23:43.871Z,0.90
2022-12-31T15:26:24.645Z,1.48
2022-12-31T15:29:02.367Z,1.52
2022-12-31T15:31:32.733Z,1.80
2022-12-31T15:34:05.114Z,0.98
2022-12-31T15:36:38.565Z,2.55
2022-12-31T15:39:39.164Z,2.20
2022-12-31T15:42:38.717Z,1.65
2022-12-31T15:45:15.872Z,1.88
2022-12-31T15:47:49.848Z,1.00
2022-12-31T15:50:23.431Z,2.57
2022-12-31T15:52:56.105Z,1.33
2022-12-31T15:55:29.988Z,2.08
2022-12-31T15:58:05.093Z,1.50
2022-12-31T16:00:55.330Z,2.58
2022-12-31T16:03:26.835Z,1.15
2022-12-31T16:06:02.091Z,2.50
2022-12-31T16:08:32.930Z,0.82
2022-12-31T16:11:02.236Z,1.00
2022-12-31T16:13:31.650Z,2.72
2022-12-31T16:16:04.895Z,2.33
2022-12-31T16:18:41.133Z,1.40
2022-12-31T16:21:32.578Z,2.85
2022-12-31T16:24:03.807Z,2.00
2022-12-31T16:26:40.345Z,1.47
2022-12-31T16:29:14.694Z,1.35
2022-12-31T16:31:45.355Z,1.40
2022-12-31T16:34:16.562Z,0.93
2022-12-31T16:36:57.407Z,1.33
2022-12-31T16:39:30.413Z,2.72
2022-12-31T16:42:21.045Z,1.35
2022-12-31T16:44:50.417Z,2.03
2022-12-31T16:47:23.143Z,1.17
2022-12-31T16:50:01.650Z,1.85
2022-12-31T16:52:36.832Z,2.72
2022-12-31T16:55:10.504Z,2.43
2022-12-31T16:57:39.168Z,1.38
2022-12-31T17:00:09.327Z,1.05
2022-12-31T17:02:43.407Z,1.50
2022-12-31T17:05:21.314Z,0.95
2022-12-31T17:07:51.088Z,3.03
2022-12-31T17:10:25.612Z,2.08
2022-12-31T17:15:48.205Z,1.70
2022-12-31T17:18:20.899Z,6.70
2022-12-31T17:20:51.359Z,1.58
2022-12-31T17:23:27.803Z,2.45
2022-12-31T17:26:00.865Z,1.50
2022-12-31T17:28:39.162Z,1.70
2022-12-31T17:31:32.277Z,2.28
2022-12-31T17:34:23.902Z,2.22
2022-12-31T17:37:01.403Z,2.10
2022-12-31T17:39:50.946Z,3.00
2022-12-31T17:42:29.290Z,2.92
2022-12-31T17:45:02.168Z,1.48
2022-12-31T17:47:37.980Z,2.17
2022-12-31T17:50:21.901Z,2.00
2022-12-31T17:52:50.444Z,2.20
2022-12-31T17:55:20.188Z,2.50
2022-12-31T17:57:54.215Z,1.90
2022-12-31T18:00:26.134Z,0.95
2022-12-31T18:02:54.466Z,0.82
2022-12-31T18:05:25.318Z,1.63
2022-12-31T18:07:54.172Z,2.57
2022-12-31T18:10:25.366Z,1.13
2022-12-31T18:12:53.631Z,3.00
2022-12-31T18:15:25.333Z,2.75
2022-12-31T18:17:53.549Z,2.40
2022-12-31T18:20:21.851Z,1.85
2022-12-31T18:22:50.436Z,2.25
2022-12-31T18:25:22.449Z,1.70
2022-12-31T18:27:52.852Z,2.03
2022-12-31T18:30:21.244Z,1.63
2022-12-31T18:32:49.685Z,2.83
2022-12-31T18:35:57.659Z,3.80
2022-12-31T18:38:13.543Z,2.35
2022-12-31T18:40:44.385Z,3.00
2022-12-31T18:43:17.876Z,2.20
2022-12-31T18:45:46.763Z,1.83
2022-12-31T18:48:15.044Z,1.40
2022-12-31T18:50:44.053Z,1.35
2022-12-31T18:53:18.415Z,1.85
2022-12-31T18:55:49.877Z,1.20
2022-12-31T18:58:19.935Z,1.52
2022-12-31T19:00:49.189Z,2.85
2022-12-31T19:03:23.730Z,4.63
2022-12-31T19:05:52.814Z,2.00
2022-12-31T19:08:23.207Z,3.95
2022-12-31T19:10:53.792Z,2.13
2022-12-31T19:13:23.412Z,1.92
2022-12-31T19:15:53.936Z,3.22
2022-12-31T19:18:22.241Z,2.60
2022-12-31T19:20:51.980Z,2.13
2022-12-31T19:23:22.628Z,2.90
2022-12-31T19:25:51.501Z,2.03
2022-12-31T19:28:23.722Z,2.10
2022-12-31T19:30:52.388Z,4.88
2022-12-31T19:33:20.929Z,1.95
2022-12-31T19:35:49.617Z,1.58
2022-12-31T19:38:20.985Z,1.87
2022-12-31T19:40:49.889Z,2.95
2022-12-31T19:43:20.804Z,2.50
2022-12-31T19:45:52.014Z,1.23
2022-12-31T19:48:25.823Z,2.05
2022-12-31T19:50:58.649Z,2.63
2022-12-31T19:53:29.202Z,4.05
2022-12-31T19:55:57.398Z,2.42
2022-12-31T19:58:27.789Z,2.73
2022-12-31T20:01:02.840Z,2.50
2022-12-31T20:03:32.845Z,6.70
2022-12-31T20:06:08.683Z,3.15
2022-12-31T20:08:39.434Z,2.97
2022-12-31T20:11:12.366Z,3.63
2022-12-31T20:13:41.597Z,3.58
2022-12-31T20:16:13.842Z,3.47
2022-12-31T20:18:43.854Z,2.20
2022-12-31T20:21:14.501Z,3.33
2022-12-31T20:23:42.786Z,1.85
2022-12-31T20:26:11.920Z,5.05
2022-12-31T20:28:40.435Z,2.80
2022-12-31T20:31:12.081Z,7.88
2022-12-31T20:33:40.488Z,2.38
2022-12-31T20:36:11.563Z,2.85
2022-12-31T20:38:39.927Z,4.63
2022-12-31T20:41:11.060Z,3.85
2022-12-31T20:43:39.879Z,2.63
2022-12-31T20:46:15.204Z,3.17
2022-12-31T20:48:45.061Z,4.32
2022-12-31T20:51:14.440Z,3.80
2022-12-31T20:53:48.239Z,3.35
2022-12-31T20:56:17.535Z,4.47
2022-12-31T20:58:46.417Z,3.90
2022-12-31T21:01:17.076Z,4.93
2022-12-31T21:04:05.747Z,2.30
2022-12-31T21:06:36.276Z,5.38
2022-12-31T21:09:06.917Z,3.75
2022-12-31T21:11:52.208Z,3.25
2022-12-31T21:14:20.462Z,3.42
2022-12-31T21:16:50.209Z,6.87
2022-12-31T21:19:18.470Z,2.80
2022-12-31T21:21:48.221Z,2.40
2022-12-31T21:24:23.364Z,4.22
2022-12-31T21:26:52.109Z,2.17
2022-12-31T21:29:20.326Z,2.30
2022-12-31T21:31:49.915Z,3.57
2022-12-31T21:34:18.116Z,4.03
2022-12-31T21:36:46.332Z,3.38
2022-12-31T21:39:14.562Z,4.25
2022-12-31T21:41:54.648Z,2.55
2022-12-31T21:44:25.095Z,4.72
2022-12-31T21:47:37.465Z,1.53
2022-12-31T21:50:09.183Z,4.13
2022-12-31T21:52:37.477Z,6.60
2022-12-31T21:55:24.783Z,5.93
2022-12-31T21:58:25.296Z,4.43
2022-12-31T22:00:59.768Z,4.50
2022-12-31T22:03:31.859Z,2.95
2022-12-31T22:06:02.939Z,4.43
2022-12-31T22:08:32.852Z,3.72
2022-12-31T22:11:01.034Z,2.75
2022-12-31T22:13:29.468Z,3.45
2022-12-31T22:16:04.730Z,4.22
2022-12-31T22:18:38.847Z,4.22
2022-12-31T22:21:17.449Z,3.83
2022-12-31T22:23:47.052Z,2.28
2022-12-31T22:26:17.588Z,8.47
2022-12-31T22:28:47.750Z,3.20
2022-12-31T22:31:18.191Z,2.78
2022-12-31T22:33:48.399Z,5.95
2022-12-31T22:36:19.943Z,3.42
2022-12-31T22:38:48.987Z,6.30
2022-12-31T22:41:19.761Z,4.57
2022-12-31T22:43:50.145Z,2.72
2022-12-31T22:46:20.451Z,2.38
2022-12-31T22:48:50.667Z,2.20
2022-12-31T22:51:19.749Z,3.83
2022-12-31T22:53:48.507Z,2.57
2022-12-31T22:56:19.433Z,3.35
2022-12-31T22:58:48.352Z,3.60
2022-12-31T23:01:20.146Z,10.38
2022-12-31T23:03:51.591Z,14.50
2022-12-31T23:06:20.562Z,28.30
2022-12-31T23:09:02.834Z,20.47
2022-12-31T23:11:31.414Z,24.52
2022-12-31T23:14:17.153Z,27.83
2022-12-31T23:17:29.933Z,19.25
2022-12-31T23:20:10.194Z,12.80
2022-12-31T23:22:55.938Z,15.82
2022-12-31T23:25:24.479Z,9.95
2022-12-31T23:27:52.706Z,9.85
2022-12-31T23:30:21.032Z,12.80
2022-12-31T23:32:49.241Z,11.23
2022-12-31T23:35:18.968Z,9.60
2022-12-31T23:37:48.409Z,10.17
2022-12-31T23:40:21.493Z,5.90
2022-12-31T23:42:50.484Z,10.63
2022-12-31T23:45:18.820Z,8.18
2022-12-31T23:47:47.007Z,4.78
2022-12-31T23:50:15.328Z,5.88
2022-12-31T23:52:44.923Z,6.47
2022-12-31T23:55:13.164Z,5.43
2022-12-31T23:57:41.506Z,5.60
